createdAt,value
2022-08-27T00:00:45.857Z,14.60
2022-08-27T00:03:12.418Z,14.05
2022-08-27T00:05:39.318Z,17.40
2022-08-27T00:08:06.470Z,18.98
2022-08-27T00:10:33.931Z,13.75
2022-08-27T00:13:00.979Z,17.67
2022-08-27T00:15:27.746Z,14.57
2022-08-27T00:17:54.202Z,16.85
2022-08-27T00:20:23.621Z,15.45
2022-08-27T00:22:50.602Z,13.93
2022-08-27T00:25:17.371Z,17.77
2022-08-27T00:27:43.967Z,13.32
2022-08-27T00:30:13.616Z,15.73
2022-08-27T00:32:40.805Z,14.60
2022-08-27T00:35:08.446Z,14.05
2022-08-27T00:37:35.406Z,17.23
2022-08-27T00:40:02.117Z,16.45
2022-08-27T00:42:29.478Z,14.15
2022-08-27T00:44:57.811Z,15.40
2022-08-27T00:47:26.881Z,15.70
2022-08-27T00:50:01.188Z,17.45
2022-08-27T00:52:31.435Z,21.83
2022-08-27T00:55:05.752Z,16.20
2022-08-27T00:57:32.830Z,19.88
2022-08-27T00:59:59.307Z,18.45
2022-08-27T01:02:30.454Z,17.15
2022-08-27T01:05:00.525Z,15.55
2022-08-27T01:07:29.097Z,14.00
2022-08-27T01:09:59.135Z,17.75
2022-08-27T01:12:25.590Z,16.60
2022-08-27T01:14:52.580Z,15.60
2022-08-27T01:17:19.092Z,15.32
2022-08-27T01:19:49.640Z,19.13
2022-08-27T01:22:26.238Z,20.08
2022-08-27T01:24:55.221Z,14.60
2022-08-27T01:27:24.876Z,16.27
2022-08-27T01:29:51.387Z,18.92
2022-08-27T01:32:22.258Z,20.08
2022-08-27T01:34:48.732Z,17.15
2022-08-27T01:37:16.581Z,14.65
2022-08-27T01:39:50.374Z,16.77
2022-08-27T01:42:23.812Z,14.00
2022-08-27T01:44:55.600Z,14.75
2022-08-27T01:47:24.525Z,18.15
2022-08-27T01:49:57.571Z,13.60
2022-08-27T01:52:26.724Z,18.90
2022-08-27T01:54:53.384Z,14.73
2022-08-27T01:57:25.270Z,16.30
2022-08-27T01:59:52.611Z,18.40
2022-08-27T02:02:19.106Z,19.52
2022-08-27T02:04:45.798Z,16.33
2022-08-27T02:07:12.411Z,12.50
2022-08-27T02:09:38.895Z,12.32
2022-08-27T02:12:05.676Z,13.00
2022-08-27T02:14:32.139Z,17.30
2022-08-27T02:16:58.695Z,11.02
2022-08-27T02:19:25.290Z,14.85
2022-08-27T02:21:52.529Z,14.45
2022-08-27T02:24:18.997Z,11.43
2022-08-27T02:26:45.666Z,9.27
2022-08-27T02:29:12.371Z,13.38
2022-08-27T02:31:38.806Z,8.15
2022-08-27T02:34:05.430Z,15.98
2022-08-27T02:36:31.891Z,12.90
2022-08-27T02:38:58.419Z,11.77
2022-08-27T02:41:24.888Z,11.95
2022-08-27T02:43:51.348Z,12.45
2022-08-27T02:46:17.860Z,12.43
2022-08-27T02:48:44.850Z,9.48
2022-08-27T02:51:11.334Z,8.48
2022-08-27T02:53:38.012Z,11.52
2022-08-27T02:56:06.043Z,9.90
2022-08-27T02:58:33.635Z,9.20
2022-08-27T03:01:01.754Z,7.70
2022-08-27T03:03:29.485Z,13.93
2022-08-27T03:05:57.911Z,11.48
2022-08-27T03:08:27.770Z,7.80
2022-08-27T03:13:25.825Z,11.40
2022-08-27T03:15:53.150Z,6.38
2022-08-27T03:18:20.287Z,10.95
2022-08-27T03:20:49.862Z,10.13
2022-08-27T03:23:17.472Z,8.13
2022-08-27T03:25:51.449Z,12.43
2022-08-27T03:28:22.796Z,9.55
2022-08-27T03:31:01.311Z,7.20
2022-08-27T03:33:29.667Z,6.50
2022-08-27T03:35:56.354Z,9.50
2022-08-27T03:38:23.189Z,9.60
2022-08-27T03:40:50.525Z,7.68
2022-08-27T03:43:18.441Z,8.68
2022-08-27T03:45:57.523Z,13.48
2022-08-27T03:48:29.113Z,9.13
2022-08-27T03:50:55.622Z,9.95
2022-08-27T03:53:22.179Z,6.75
2022-08-27T03:55:49.175Z,8.93
2022-08-27T03:58:16.874Z,9.38
2022-08-27T04:00:43.650Z,5.07
2022-08-27T04:03:13.155Z,9.82
2022-08-27T04:05:40.149Z,9.30
2022-08-27T04:08:06.932Z,8.02
2022-08-27T04:10:34.863Z,5.65
2022-08-27T04:13:01.800Z,8.98
2022-08-27T04:15:28.412Z,8.23
2022-08-27T04:17:54.905Z,6.70
2022-08-27T04:20:36.609Z,9.40
2022-08-27T04:23:04.059Z,10.63
2022-08-27T04:25:30.669Z,8.32
2022-08-27T04:27:57.628Z,7.93
2022-08-27T04:30:24.125Z,11.38
2022-08-27T04:32:50.746Z,5.88
2022-08-27T04:35:17.371Z,8.05
2022-08-27T04:37:43.867Z,7.35
2022-08-27T04:40:10.869Z,6.30
2022-08-27T04:42:37.612Z,6.50
2022-08-27T04:45:04.996Z,4.97
2022-08-27T04:47:31.463Z,5.65
2022-08-27T04:49:57.981Z,6.10
2022-08-27T04:52:24.822Z,8.00
2022-08-27T04:54:51.526Z,10.88
2022-08-27T04:57:18.184Z,7.07
2022-08-27T04:59:44.927Z,8.93
2022-08-27T05:02:11.629Z,8.27
2022-08-27T05:04:40.087Z,4.75
2022-08-27T05:07:07.879Z,8.30
2022-08-27T05:09:34.527Z,5.78
2022-08-27T05:12:01.773Z,5.43
2022-08-27T05:14:32.620Z,10.27
2022-08-27T05:16:59.647Z,11.25
2022-08-27T05:19:26.394Z,9.40
2022-08-27T05:21:53.853Z,6.65
2022-08-27T05:24:20.746Z,6.93
2022-08-27T05:26:47.438Z,7.60
2022-08-27T05:29:14.285Z,6.57
2022-08-27T05:31:41.670Z,7.32
2022-08-27T05:34:11.418Z,9.98
2022-08-27T05:36:47.731Z,9.45
2022-08-27T05:41:41.798Z,6.18
2022-08-27T05:44:36.859Z,6.15
2022-08-27T05:46:56.106Z,7.80
2022-08-27T05:49:22.661Z,6.60
2022-08-27T05:51:49.091Z,6.47
2022-08-27T05:54:19.379Z,7.97
2022-08-27T05:56:47.038Z,9.63
2022-08-27T05:59:34.476Z,7.68
2022-08-27T06:02:01.488Z,8.48
2022-08-27T06:04:28.335Z,6.00
2022-08-27T06:06:54.813Z,7.95
2022-08-27T06:09:24.939Z,7.72
2022-08-27T06:11:54.304Z,9.55
2022-08-27T06:14:21.067Z,10.07
2022-08-27T06:16:48.612Z,7.28
2022-08-27T06:19:15.659Z,5.38
2022-08-27T06:21:42.378Z,6.95
2022-08-27T06:24:09.593Z,6.72
2022-08-27T06:26:36.319Z,6.72
2022-08-27T06:29:07.427Z,4.50
2022-08-27T06:31:35.629Z,8.63
2022-08-27T06:34:07.579Z,7.43
2022-08-27T06:36:37.121Z,9.10
2022-08-27T06:39:04.491Z,6.03
2022-08-27T06:41:30.991Z,6.70
2022-08-27T06:43:58.342Z,5.47
2022-08-27T06:46:26.608Z,8.80
2022-08-27T06:48:54.898Z,7.03
2022-08-27T06:51:27.310Z,9.10
2022-08-27T06:56:21.699Z,10.38
2022-08-27T06:58:52.700Z,6.53
2022-08-27T07:01:22.424Z,8.82
2022-08-27T07:03:49.228Z,5.53
2022-08-27T07:06:17.037Z,7.30
2022-08-27T07:08:43.765Z,7.72
2022-08-27T07:11:20.136Z,6.50
2022-08-27T07:13:47.990Z,7.63
2022-08-27T07:16:20.438Z,3.88
2022-08-27T07:18:54.276Z,6.32
2022-08-27T07:21:22.134Z,6.60
2022-08-27T07:23:51.500Z,7.60
2022-08-27T07:26:19.302Z,8.82
2022-08-27T07:28:46.622Z,5.53
2022-08-27T07:31:16.935Z,6.25
2022-08-27T07:33:51.486Z,6.85
2022-08-27T07:36:20.874Z,6.80
2022-08-27T07:38:56.883Z,6.35
2022-08-27T07:41:30.571Z,10.68
2022-08-27T07:44:17.032Z,4.97
2022-08-27T07:46:47.928Z,8.70
2022-08-27T07:49:15.295Z,8.60
2022-08-27T07:51:41.730Z,10.60
2022-08-27T07:54:08.989Z,9.65
2022-08-27T07:56:35.441Z,8.32
2022-08-27T07:59:01.999Z,5.82
2022-08-27T08:01:29.292Z,8.63
2022-08-27T08:03:56.229Z,7.30
2022-08-27T08:06:23.077Z,7.72
2022-08-27T08:08:49.609Z,7.65
2022-08-27T08:11:17.825Z,4.88
2022-08-27T08:13:45.345Z,6.18
2022-08-27T08:16:12.546Z,7.90
2022-08-27T08:18:39.547Z,7.00
2022-08-27T08:21:09.849Z,6.68
2022-08-27T08:23:36.506Z,3.83
2022-08-27T08:26:03.347Z,7.22
2022-08-27T08:28:30.167Z,8.43
2022-08-27T08:30:58.376Z,9.50
2022-08-27T08:33:25.715Z,6.75
2022-08-27T08:35:52.995Z,6.78
2022-08-27T08:38:20.021Z,5.45
2022-08-27T08:40:50.252Z,7.57
2022-08-27T08:43:27.634Z,6.85
2022-08-27T08:45:55.514Z,5.82
2022-08-27T08:48:24.046Z,4.97
2022-08-27T08:51:05.692Z,7.95
2022-08-27T08:53:45.844Z,9.70
2022-08-27T08:56:18.663Z,5.90
2022-08-27T08:58:53.189Z,5.30
2022-08-27T09:01:21.021Z,6.25
2022-08-27T09:03:57.254Z,7.28
2022-08-27T09:06:48.516Z,7.38
2022-08-27T09:09:52.572Z,5.35
2022-08-27T09:12:26.803Z,12.23
2022-08-27T09:15:02.516Z,7.93
2022-08-27T09:17:31.577Z,7.97
2022-08-27T09:19:58.054Z,7.55
2022-08-27T09:22:57.904Z,8.10
2022-08-27T09:25:39.694Z,12.77
2022-08-27T09:28:33.125Z,9.03
2022-08-27T09:31:05.054Z,8.95
2022-08-27T09:33:46.090Z,6.93
2022-08-27T09:36:22.950Z,6.40
2022-08-27T09:38:59.008Z,15.60
2022-08-27T09:41:29.184Z,9.02
2022-08-27T09:43:59.868Z,6.28
2022-08-27T09:46:27.089Z,9.63
2022-08-27T09:48:53.925Z,7.78
2022-08-27T09:51:23.726Z,9.13
2022-08-27T09:53:53.468Z,8.90
2022-08-27T09:56:37.644Z,10.40
2022-08-27T09:59:37.824Z,10.02
2022-08-27T10:02:22.417Z,8.65
2022-08-27T10:04:54.086Z,10.70
2022-08-27T10:07:41.817Z,6.73
2022-08-27T10:10:42.527Z,9.75
2022-08-27T10:13:29.903Z,8.05
2022-08-27T10:16:13.375Z,8.13
2022-08-27T10:19:12.124Z,7.32
2022-08-27T10:21:47.513Z,8.85
2022-08-27T10:24:37.116Z,7.00
2022-08-27T10:27:28.032Z,7.72
2022-08-27T10:30:08.356Z,7.93
2022-08-27T10:32:52.314Z,10.48
2022-08-27T10:35:53.733Z,8.55
2022-08-27T10:38:44.367Z,9.70
2022-08-27T10:41:42.691Z,8.77
2022-08-27T10:44:35.402Z,12.48
2022-08-27T10:47:14.245Z,10.82
2022-08-27T10:49:40.552Z,10.68
2022-08-27T10:52:18.150Z,9.70
2022-08-27T10:54:57.668Z,9.25
2022-08-27T10:57:59.084Z,8.98
2022-08-27T11:01:04.740Z,13.00
2022-08-27T11:03:44.563Z,7.22
2022-08-27T11:06:28.153Z,12.55
2022-08-27T11:09:07.721Z,13.15
2022-08-27T11:14:30.538Z,10.88
2022-08-27T11:19:30.395Z,8.23
2022-08-27T11:22:05.041Z,10.68
2022-08-27T11:24:36.777Z,12.25
2022-08-27T11:27:06.094Z,10.57
2022-08-27T11:29:43.268Z,10.25
2022-08-27T11:32:29.603Z,8.48
2022-08-27T11:35:14.117Z,16.55
2022-08-27T11:37:47.198Z,10.73
2022-08-27T11:40:32.633Z,11.25
2022-08-27T11:43:08.126Z,12.07
2022-08-27T11:45:38.922Z,12.57
2022-08-27T11:48:23.828Z,10.40
2022-08-27T11:51:06.909Z,14.27
2022-08-27T11:53:52.059Z,10.27
2022-08-27T11:56:31.155Z,10.18
2022-08-27T11:59:22.407Z,14.48
2022-08-27T12:01:52.270Z,11.02
2022-08-27T12:04:30.968Z,9.70
2022-08-27T12:07:24.948Z,12.45
2022-08-27T12:10:08.745Z,10.38
2022-08-27T12:12:53.039Z,10.40
2022-08-27T12:15:48.050Z,11.60
2022-08-27T12:18:49.765Z,10.65
2022-08-27T12:21:53.970Z,12.23
2022-08-27T12:24:59.569Z,9.05
2022-08-27T12:27:34.554Z,9.93
2022-08-27T12:30:19.462Z,12.55
2022-08-27T12:32:46.851Z,11.38
2022-08-27T12:35:29.838Z,9.32
2022-08-27T12:38:06.931Z,10.75
2022-08-27T12:40:48.666Z,10.18
2022-08-27T12:43:19.059Z,8.60
2022-08-27T12:45:47.707Z,8.88
2022-08-27T12:48:19.055Z,14.15
2022-08-27T12:50:51.986Z,7.78
2022-08-27T12:53:34.652Z,7.57
2022-08-27T12:56:30.265Z,9.15
2022-08-27T12:59:11.616Z,9.63
2022-08-27T13:01:47.411Z,10.75
2022-08-27T13:04:22.345Z,7.82
2022-08-27T13:06:49.317Z,5.00
2022-08-27T13:09:15.740Z,7.53
2022-08-27T13:11:48.330Z,8.75
2022-08-27T13:14:20.066Z,8.73
2022-08-27T13:16:52.890Z,9.50
2022-08-27T13:19:31.123Z,7.50
2022-08-27T13:22:01.474Z,7.32
2022-08-27T13:24:34.279Z,5.78
2022-08-27T13:27:03.002Z,7.43
2022-08-27T13:29:29.829Z,6.85
2022-08-27T13:31:56.617Z,9.55
2022-08-27T13:34:25.731Z,6.70
2022-08-27T13:36:59.982Z,7.82
2022-08-27T13:39:27.992Z,5.95
2022-08-27T13:41:55.129Z,8.32
2022-08-27T13:44:25.885Z,4.10
2022-08-27T13:47:02.428Z,7.80
2022-08-27T13:49:31.689Z,8.88
2022-08-27T13:52:23.252Z,6.78
2022-08-27T13:54:59.422Z,7.53
2022-08-27T13:57:31.717Z,8.82
2022-08-27T14:00:10.626Z,6.38
2022-08-27T14:02:37.341Z,8.38
2022-08-27T14:05:05.883Z,9.23
2022-08-27T14:07:38.999Z,9.15
2022-08-27T14:10:26.853Z,10.27
2022-08-27T14:13:03.554Z,9.30
2022-08-27T14:15:35.903Z,11.43
2022-08-27T14:18:05.005Z,6.55
2022-08-27T14:20:31.527Z,8.43
2022-08-27T14:22:59.523Z,8.00
2022-08-27T14:25:26.228Z,7.70
2022-08-27T14:27:54.513Z,8.30
2022-08-27T14:30:28.827Z,7.90
2022-08-27T14:32:58.458Z,6.18
2022-08-27T14:35:25.656Z,7.05
2022-08-27T14:37:52.104Z,6.25
2022-08-27T14:40:18.596Z,7.28
2022-08-27T14:42:45.720Z,7.82
2022-08-27T14:45:12.278Z,6.90
2022-08-27T14:47:39.642Z,10.50
2022-08-27T14:50:11.718Z,5.53
2022-08-27T14:52:39.859Z,6.47
2022-08-27T14:55:10.486Z,7.28
2022-08-27T14:57:37.384Z,4.97
2022-08-27T15:00:07.927Z,9.82
2022-08-27T15:02:35.198Z,8.02
2022-08-27T15:05:01.676Z,10.52
2022-08-27T15:07:37.933Z,8.25
2022-08-27T15:10:06.537Z,8.85
2022-08-27T15:12:33.011Z,7.50
2022-08-27T15:14:59.458Z,7.88
2022-08-27T15:17:34.510Z,7.53
2022-08-27T15:20:08.423Z,6.43
2022-08-27T15:22:36.707Z,11.40
2022-08-27T15:25:05.362Z,7.82
2022-08-27T15:27:38.539Z,9.65
2022-08-27T15:30:07.070Z,9.32
2022-08-27T15:32:36.601Z,10.77
2022-08-27T15:35:07.861Z,5.95
2022-08-27T15:37:34.699Z,6.50
2022-08-27T15:40:01.690Z,10.63
2022-08-27T15:42:28.380Z,9.15
2022-08-27T15:44:55.887Z,7.80
2022-08-27T15:47:23.758Z,8.40
2022-08-27T15:49:50.318Z,9.70
2022-08-27T15:52:20.406Z,12.13
2022-08-27T15:54:49.021Z,9.85
2022-08-27T15:57:16.892Z,9.07
2022-08-27T15:59:44.662Z,8.35
2022-08-27T16:02:16.852Z,6.55
2022-08-27T16:04:43.653Z,9.10
2022-08-27T16:07:20.170Z,7.05
2022-08-27T16:09:48.062Z,6.80
2022-08-27T16:12:25.671Z,6.82
2022-08-27T16:14:53.982Z,6.07
2022-08-27T16:17:21.147Z,5.15
2022-08-27T16:19:47.564Z,6.40
2022-08-27T16:22:14.692Z,10.10
2022-08-27T16:24:41.192Z,7.10
2022-08-27T16:27:07.885Z,5.55
2022-08-27T16:29:34.554Z,6.68
2022-08-27T16:32:01.567Z,8.32
2022-08-27T16:34:29.799Z,6.82
2022-08-27T16:36:56.543Z,5.15
2022-08-27T16:39:23.398Z,7.93
2022-08-27T16:41:50.346Z,7.35
2022-08-27T16:44:17.622Z,8.60
2022-08-27T16:46:44.131Z,6.97
2022-08-27T16:49:29.413Z,6.55
2022-08-27T16:51:55.864Z,8.93
2022-08-27T16:54:22.413Z,6.57
2022-08-27T16:56:49.332Z,5.95
2022-08-27T16:59:16.393Z,7.90
2022-08-27T17:01:43.170Z,6.18
2022-08-27T17:04:17.286Z,8.13
2022-08-27T17:06:48.477Z,7.95
2022-08-27T17:09:15.814Z,6.00
2022-08-27T17:11:43.313Z,9.45
2022-08-27T17:14:10.824Z,6.35
2022-08-27T17:16:37.861Z,7.38
2022-08-27T17:19:05.222Z,7.35
2022-08-27T17:21:32.743Z,5.50
2022-08-27T17:24:02.491Z,5.53
2022-08-27T17:26:30.803Z,9.88
2022-08-27T17:28:57.342Z,8.30
2022-08-27T17:31:28.393Z,7.47
2022-08-27T17:33:59.149Z,5.82
2022-08-27T17:36:27.092Z,6.65
2022-08-27T17:38:54.473Z,6.35
2022-08-27T17:41:34.185Z,7.28
2022-08-27T17:44:04.314Z,9.88
2022-08-27T17:46:30.917Z,9.88
2022-08-27T17:48:57.464Z,8.00
2022-08-27T17:51:23.953Z,8.23
2022-08-27T17:53:55.937Z,4.18
2022-08-27T17:56:26.399Z,7.15
2022-08-27T17:58:53.915Z,5.35
2022-08-27T18:01:28.397Z,8.18
2022-08-27T18:03:55.932Z,6.72
2022-08-27T18:06:22.821Z,8.43
2022-08-27T18:08:49.279Z,13.15
2022-08-27T18:11:16.705Z,4.88
2022-08-27T18:13:43.330Z,7.78
2022-08-27T18:16:12.082Z,4.45
2022-08-27T18:18:38.771Z,5.30
2022-08-27T18:21:07.790Z,6.78
2022-08-27T18:23:36.463Z,5.43
2022-08-27T18:26:03.084Z,5.53
2022-08-27T18:28:31.051Z,7.25
2022-08-27T18:30:57.609Z,4.70
2022-08-27T18:33:24.153Z,7.55
2022-08-27T18:35:50.631Z,6.10
2022-08-27T18:38:18.460Z,5.75
2022-08-27T18:40:47.234Z,6.60
2022-08-27T18:43:14.581Z,7.38
2022-08-27T18:45:41.182Z,7.45
2022-08-27T18:48:14.724Z,5.30
2022-08-27T18:50:46.924Z,7.90
2022-08-27T18:53:18.114Z,6.10
2022-08-27T18:55:44.651Z,5.28
2022-08-27T18:58:11.439Z,7.00
2022-08-27T19:00:43.221Z,8.52
2022-08-27T19:03:10.565Z,3.97
2022-08-27T19:05:37.148Z,7.25
2022-08-27T19:08:03.900Z,8.00
2022-08-27T19:10:30.337Z,4.63
2022-08-27T19:12:56.849Z,6.90
2022-08-27T19:15:23.362Z,6.50
2022-08-27T19:17:52.202Z,8.57
2022-08-27T19:20:19.766Z,4.00
2022-08-27T19:22:47.168Z,8.85
2022-08-27T19:25:13.734Z,6.70
2022-08-27T19:27:40.357Z,6.43
2022-08-27T19:30:07.742Z,7.85
2022-08-27T19:32:34.483Z,3.55
2022-08-27T19:35:00.947Z,6.22
2022-08-27T19:37:29.324Z,7.13
2022-08-27T19:39:55.959Z,6.82
2022-08-27T19:42:22.481Z,7.00
2022-08-27T19:44:48.935Z,7.75
2022-08-27T19:47:21.343Z,9.77
2022-08-27T19:52:16.107Z,7.35
2022-08-27T19:55:09.775Z,7.22
2022-08-27T19:57:29.050Z,9.82
2022-08-27T19:59:55.529Z,5.68
2022-08-27T20:02:22.000Z,8.63
2022-08-27T20:05:14.365Z,8.30
2022-08-27T20:07:35.064Z,10.93
2022-08-27T20:10:08.269Z,11.95
2022-08-27T20:12:35.106Z,6.50
2022-08-27T20:15:01.798Z,8.20
2022-08-27T20:17:28.405Z,9.85
2022-08-27T20:19:55.869Z,9.70
2022-08-27T20:22:22.325Z,11.57
2022-08-27T20:24:48.855Z,9.30
2022-08-27T20:27:15.276Z,9.85
2022-08-27T20:29:42.294Z,9.70
2022-08-27T20:32:08.715Z,7.95
2022-08-27T20:34:35.105Z,10.00
2022-08-27T20:37:02.486Z,8.20
2022-08-27T20:39:31.671Z,14.77
2022-08-27T20:41:58.498Z,10.25
2022-08-27T20:44:24.943Z,8.38
2022-08-27T20:46:55.924Z,11.20
2022-08-27T20:49:22.419Z,10.80
2022-08-27T20:51:51.304Z,12.73
2022-08-27T20:54:30.011Z,13.85
2022-08-27T20:56:56.463Z,9.75
2022-08-27T20:59:41.528Z,11.10
2022-08-27T21:02:12.708Z,11.75
2022-08-27T21:04:41.642Z,9.15
2022-08-27T21:07:08.106Z,9.48
2022-08-27T21:09:34.576Z,9.38
2022-08-27T21:12:01.419Z,14.43
2022-08-27T21:14:27.938Z,12.60
2022-08-27T21:16:54.701Z,10.73
2022-08-27T21:19:21.208Z,8.10
2022-08-27T21:21:47.928Z,10.38
2022-08-27T21:24:14.396Z,10.07
2022-08-27T21:26:40.965Z,11.55
2022-08-27T21:29:07.467Z,13.38
2022-08-27T21:31:33.944Z,10.65
2022-08-27T21:34:00.425Z,11.93
2022-08-27T21:36:26.879Z,10.32
2022-08-27T21:38:53.405Z,12.43
2022-08-27T21:41:20.361Z,11.73
2022-08-27T21:43:46.992Z,10.13
2022-08-27T21:46:13.546Z,11.75
2022-08-27T21:48:40.104Z,6.90
2022-08-27T21:51:11.347Z,12.50
2022-08-27T21:53:38.169Z,14.13
2022-08-27T21:56:04.629Z,13.40
2022-08-27T21:58:31.131Z,11.07
2022-08-27T22:00:57.879Z,13.57
2022-08-27T22:03:25.355Z,10.18
2022-08-27T22:05:51.919Z,10.95
2022-08-27T22:08:19.713Z,11.38
2022-08-27T22:10:49.320Z,11.48
2022-08-27T22:13:15.859Z,10.70
2022-08-27T22:15:42.349Z,11.13
2022-08-27T22:18:09.241Z,12.27
2022-08-27T22:20:35.759Z,13.15
2022-08-27T22:23:04.864Z,10.75
2022-08-27T22:25:31.586Z,9.30
2022-08-27T22:27:58.054Z,10.00
2022-08-27T22:30:24.498Z,11.25
2022-08-27T22:32:51.342Z,8.32
2022-08-27T22:35:18.126Z,13.15
2022-08-27T22:37:44.762Z,11.48
2022-08-27T22:40:19.104Z,14.25
2022-08-27T22:42:46.107Z,9.77
2022-08-27T22:45:12.608Z,8.38
2022-08-27T22:47:39.052Z,13.38
2022-08-27T22:50:06.307Z,9.32
2022-08-27T22:52:32.813Z,12.07
2022-08-27T22:54:59.287Z,11.18
2022-08-27T22:57:25.740Z,12.55
2022-08-27T22:59:52.241Z,10.60
2022-08-27T23:02:19.001Z,10.80
2022-08-27T23:04:54.913Z,13.98
2022-08-27T23:07:22.692Z,10.50
2022-08-27T23:09:49.125Z,10.93
2022-08-27T23:12:15.538Z,14.07
2022-08-27T23:14:41.970Z,10.60
2022-08-27T23:17:08.410Z,11.40
2022-08-27T23:19:34.912Z,14.93
2022-08-27T23:22:01.331Z,13.73
2022-08-27T23:24:32.802Z,11.15
2022-08-27T23:27:17.838Z,12.52
2022-08-27T23:29:45.562Z,11.57
2022-08-27T23:32:12.061Z,11.13
2022-08-27T23:34:38.465Z,12.10
2022-08-27T23:37:04.908Z,9.60
2022-08-27T23:39:31.323Z,13.55
2022-08-27T23:41:57.860Z,15.32
2022-08-27T23:44:28.361Z,12.07
2022-08-27T23:46:55.029Z,17.40
2022-08-27T23:49:21.469Z,11.68
2022-08-27T23:51:47.891Z,11.00
2022-08-27T23:54:14.293Z,11.23
2022-08-27T23:56:40.903Z,15.30
2022-08-27T23:59:07.300Z,14.15
